Time;durP1;ratioP1;P1;durP2;ratioP2;P2;SDS_P1;SDS_P2;PMS_P1;PMS_P2;Temp;Humidity;BMP_temperature;BMP_pressure;BME280_temperature;BME280_humidity;BME280_pressure;Samples;Min_cycle;Max_cycle;Signal;HPM_P1;HPM_P2
2022/06/27 00:01:33;;;;;;;17.73;15.18;;;;;;;16.55;100.00;161252.19;4983083;28;20092;-62
2022/06/27 00:03:58;;;;;;;18.60;16.48;;;;;;;16.54;100.00;159313.16;4984009;28;20019;-62
2022/06/27 00:06:23;;;;;;;21.20;16.67;;;;;;;16.50;100.00;155613.53;4981140;28;20074;-62
2022/06/27 00:08:49;;;;;;;18.35;16.05;;;;;;;16.50;100.00;150985.38;4984707;28;20045;-62
2022/06/27 00:11:16;;;;;;;27.67;20.27;;;;;;;16.48;100.00;146002.22;4981508;28;20053;-62
2022/06/27 00:13:42;;;;;;;22.85;18.45;;;;;;;16.46;100.00;142444.13;4984460;28;20037;-62
2022/06/27 00:16:07;;;;;;;22.67;18.27;;;;;;;16.43;100.00;139243.06;4980797;28;20055;-62
2022/06/27 00:18:32;;;;;;;20.67;17.50;;;;;;;16.47;100.00;136769.38;4983777;28;20033;-62
2022/06/27 00:20:58;;;;;;;21.27;18.92;;;;;;;16.49;100.00;133939.22;4982363;28;20047;-62
2022/06/27 00:23:23;;;;;;;23.50;20.33;;;;;;;16.54;100.00;131468.13;4981406;28;20022;-62
2022/06/27 00:25:48;;;;;;;27.50;21.08;;;;;;;16.54;100.00;129697.75;4982915;28;20034;-62
2022/06/27 00:28:14;;;;;;;27.77;19.85;;;;;;;16.56;100.00;127932.28;4982953;28;20034;-62
2022/06/27 00:30:39;;;;;;;24.33;20.13;;;;;;;16.58;100.00;126521.16;4981766;28;20042;-62
2022/06/27 00:33:05;;;;;;;27.13;22.27;;;;;;;16.61;100.00;125819.88;4982073;28;20030;-62
2022/06/27 00:35:30;;;;;;;23.90;20.92;;;;;;;16.61;100.00;125113.53;4982503;28;20038;-62
2022/06/27 00:37:56;;;;;;;24.88;21.67;;;;;;;16.48;100.00;123673.00;4983169;28;20061;-60
2022/06/27 00:40:21;;;;;;;24.77;19.05;;;;;;;16.47;100.00;124732.50;4981328;28;20098;-60
2022/06/27 00:42:46;;;;;;;26.55;23.02;;;;;;;16.52;100.00;124740.59;4981970;28;20026;-60
2022/06/27 00:45:12;;;;;;;22.15;19.55;;;;;;;16.55;100.00;123686.09;4981905;28;20422;-60
2022/06/27 00:47:37;;;;;;;24.05;21.58;;;;;;;16.55;100.00;123686.09;4983612;28;20030;-60
2022/06/27 00:50:05;;;;;;;20.38;18.30;;;;;;;16.53;100.00;124035.56;4982452;28;20109;-60
2022/06/27 00:52:30;;;;;;;22.13;17.77;;;;;;;16.53;100.00;123682.06;4980921;28;20152;-60
2022/06/27 00:54:56;;;;;;;28.17;21.95;;;;;;;16.55;100.00;123332.63;4981249;28;20015;-61
2022/06/27 00:57:21;;;;;;;25.70;20.02;;;;;;;16.53;100.00;122975.16;4982464;28;20031;-61
2022/06/27 00:59:47;;;;;;;28.30;19.77;;;;;;;16.49;100.00;122615.75;4980275;28;20031;-62
2022/06/27 01:02:12;;;;;;;19.55;17.58;;;;;;;16.47;100.00;121197.59;4982462;28;20731;-62
2022/06/27 01:04:38;;;;;;;26.00;19.52;;;;;;;16.42;100.00;121188.72;4981902;28;20366;-62
2022/06/27 01:07:06;;;;;;;23.20;17.77;;;;;;;16.40;100.00;121184.78;4981617;28;20028;-61
2022/06/27 01:09:31;;;;;;;23.02;18.33;;;;;;;16.35;100.00;120821.75;4982232;28;20561;-61
2022/06/27 01:11:57;;;;;;;22.02;19.75;;;;;;;16.35;100.00;119762.50;4980843;28;20038;-62
2022/06/27 01:14:22;;;;;;;20.50;18.33;;;;;;;16.34;100.00;118701.59;4983037;28;20030;-62
2022/06/27 01:16:48;;;;;;;23.85;19.75;;;;;;;16.32;100.00;118698.69;4980667;28;20038;-62
2022/06/27 01:19:15;;;;;;;23.05;20.10;;;;;;;16.27;100.00;119393.97;4980305;28;20031;-62
2022/06/27 01:21:55;;;;;;;22.92;19.63;;;;;;;16.21;100.00;120088.22;4980003;28;20121;-62
2022/06/27 01:24:22;;;;;;;22.80;19.30;;;;;;;16.17;100.00;119376.47;4982713;28;20081;-62
2022/06/27 01:26:49;;;;;;;25.45;18.77;;;;;;;16.16;100.00;118314.97;4979409;28;20059;-62
2022/06/27 01:29:16;;;;;;;22.10;19.85;;;;;;;16.12;100.00;117250.00;4981976;28;20026;-62
2022/06/27 01:31:41;;;;;;;21.80;17.98;;;;;;;16.06;100.00;116180.72;4981384;28;20042;-61
2022/06/27 01:34:08;;;;;;;26.85;20.38;;;;;;;16.06;100.00;114418.22;4980212;28;20061;-61
2022/06/27 01:36:43;;;;;;;22.83;20.42;;;;;;;16.06;100.00;111952.03;4980689;28;20042;-62
2022/06/27 01:39:23;;;;;;;28.70;21.38;;;;;;;16.07;100.00;110545.22;4982741;28;20026;-61
2022/06/27 01:41:53;;;;;;;27.33;24.50;;;;;;;16.08;100.00;109842.88;4979451;28;20585;-62
2022/06/27 01:44:21;;;;;;;24.52;22.30;;;;;;;16.09;100.00;109140.66;4981787;28;20037;-60
2022/06/27 01:47:08;;;;;;;29.52;25.80;;;;;;;16.13;100.00;109147.72;4978898;28;20049;-60
2022/06/27 01:49:35;;;;;;;28.75;25.65;;;;;;;16.14;100.00;109501.53;4981921;28;20033;-61
2022/06/27 01:52:02;;;;;;;28.58;25.65;;;;;;;16.16;100.00;109856.25;4979466;28;20030;-61
2022/06/27 01:54:28;;;;;;;26.20;23.42;;;;;;;16.18;100.00;108804.56;4982885;28;20023;-60
2022/06/27 01:56:53;;;;;;;33.05;26.17;;;;;;;16.22;100.00;108105.84;4977158;28;20065;-61
2022/06/27 01:59:21;;;;;;;40.20;28.30;;;;;;;16.26;100.00;107057.06;4980924;28;20482;-60
2022/06/27 02:01:47;;;;;;;28.80;25.35;;;;;;;16.23;100.00;106348.16;4980023;28;20159;-61
2022/06/27 02:04:13;;;;;;;30.38;27.17;;;;;;;16.16;100.00;106689.63;4982110;28;20029;-61
2022/06/27 02:06:40;;;;;;;34.47;28.73;;;;;;;16.12;100.00;106330.91;5010156;28;20140;-60
2022/06/27 02:09:07;;;;;;;33.95;29.30;;;;;;;16.10;100.00;105975.75;5020452;28;20389;-61
2022/06/27 02:11:34;;;;;;;34.42;30.83;;;;;;;16.08;100.00;105620.63;5018582;28;20053;-61
2022/06/27 02:13:59;;;;;;;32.75;29.23;;;;;;;16.15;100.00;105280.06;5016845;28;20054;-58
2022/06/27 02:16:25;;;;;;;32.85;27.70;;;;;;;16.16;100.00;105282.63;5003230;28;20038;-58
2022/06/27 02:18:51;;;;;;;32.05;27.73;;;;;;;16.15;100.00;105984.34;4997415;28;20045;-61
2022/06/27 02:21:20;;;;;;;32.33;27.45;;;;;;;16.20;100.00;106694.78;4985681;28;20038;-60
2022/06/27 02:23:46;;;;;;;31.70;27.20;;;;;;;16.22;100.00;107051.00;4979619;28;21596;-60
2022/06/27 02:26:13;;;;;;;33.22;27.00;;;;;;;16.21;100.00;107753.06;4980488;28;20060;-60
2022/06/27 02:28:39;;;;;;;34.95;29.63;;;;;;;16.24;100.00;108109.38;4980561;28;20425;-60
2022/06/27 02:31:06;;;;;;;37.08;29.58;;;;;;;16.27;100.00;108114.66;4978611;28;20089;-60
2022/06/27 02:33:40;;;;;;;37.58;29.70;;;;;;;16.27;100.00;108114.66;4982098;28;20036;-60
2022/06/27 02:36:09;;;;;;;31.10;27.67;;;;;;;16.30;100.00;107415.91;4980193;28;20035;-60
2022/06/27 02:38:35;;;;;;;;;;;;;;;16.33;100.00;107421.16;4981160;28;20106;-60
2022/06/27 02:41:03;;;;;;;29.77;25.83;;;;;;;16.33;100.00;107421.16;4979081;28;19925;-60
2022/06/27 02:43:29;;;;;;;30.90;25.30;;;;;;;16.23;100.00;109867.84;4980224;28;20037;-60
2022/06/27 02:45:55;;;;;;;33.00;27.17;;;;;;;16.20;100.00;112328.88;4979998;28;20174;-60
2022/06/27 02:48:24;;;;;;;31.65;28.42;;;;;;;16.15;100.00;113376.78;4980018;28;20143;-60
2022/06/27 02:50:52;;;;;;;;;;;;;;;16.11;100.00;114075.09;4970348;28;20038;-60
2022/06/27 02:53:27;;;;;;;29.80;26.55;;;;;;;16.12;100.00;113018.88;4971558;28;20358;-61
2022/06/27 02:55:55;;;;;;;26.60;23.80;;;;;;;16.15;100.00;111615.25;4970739;28;20054;-61
2022/06/27 02:58:31;;;;;;;31.52;27.70;;;;;;;16.06;100.00;111952.03;4985837;28;20022;-61
2022/06/27 03:00:57;;;;;;;28.85;24.90;;;;;;;16.01;100.00;112999.63;4989304;28;20077;-61
2022/06/27 03:03:25;;;;;;;26.75;23.77;;;;;;;16.05;100.00;112654.66;4990896;28;20030;-60
2022/06/27 03:06:00;;;;;;;35.63;27.33;;;;;;;16.03;100.00;113707.94;4979152;28;20109;-60
2022/06/27 03:08:39;;;;;;;27.65;24.35;;;;;;;16.02;100.00;113354.66;4970100;28;20042;-61
2022/06/27 03:11:05;;;;;;;32.28;24.73;;;;;;;15.93;100.00;112632.72;4968563;28;20414;-60
2022/06/27 03:13:30;;;;;;;31.63;25.42;;;;;;;15.93;100.00;110872.16;4971328;28;20085;-61
2022/06/27 03:15:56;;;;;;;29.60;25.58;;;;;;;15.97;100.00;108767.53;4987363;28;20054;-60
2022/06/27 03:18:21;;;;;;;28.63;24.98;;;;;;;15.94;100.00;107004.13;4990979;28;20026;-60
2022/06/27 03:20:46;;;;;;;27.85;25.13;;;;;;;15.90;100.00;105941.44;4989158;28;20046;-61
2022/06/27 03:23:12;;;;;;;35.10;31.10;;;;;;;15.89;100.00;105236.59;4988335;28;20030;-61
2022/06/27 03:25:38;;;;;;;31.13;27.75;;;;;;;15.95;100.00;103840.78;4977134;28;20367;-60
2022/06/27 03:28:04;;;;;;;29.10;25.35;;;;;;;15.92;100.00;103835.75;4974677;28;20030;-61
2022/06/27 03:30:29;;;;;;;31.38;27.52;;;;;;;15.91;100.00;103131.28;4973876;28;20050;-61
2022/06/27 03:32:55;;;;;;;31.38;28.17;;;;;;;15.94;100.00;101731.03;4975076;28;20031;-61
2022/06/27 03:35:20;;;;;;;34.67;30.92;;;;;;;15.88;100.00;100668.44;4973255;28;20391;-61
2022/06/27 03:37:45;;;;;;;34.72;26.90;;;;;;;15.91;100.00;99268.16;4976250;28;20513;-61
2022/06/27 03:40:11;;;;;;;30.23;27.13;;;;;;;15.83;100.00;98555.03;4986220;28;20054;-61
2022/06/27 03:42:36;;;;;;;34.03;30.45;;;;;;;15.92;100.00;97515.00;4985726;28;20030;-61
2022/06/27 03:45:02;;;;;;;34.80;27.88;;;;;;;15.94;100.00;96816.44;4973598;28;20042;-61
2022/06/27 03:47:27;;;;;;;31.85;27.80;;;;;;;15.91;100.00;96460.94;4974792;28;20134;-60
2022/06/27 03:50:02;;;;;;;36.42;32.22;;;;;;;15.95;100.00;96467.94;4973103;28;20026;-61
2022/06/27 03:52:28;;;;;;;41.83;34.70;;;;;;;15.99;100.00;97175.13;4988464;28;20030;-61
2022/06/27 03:54:54;;;;;;;35.13;30.05;;;;;;;16.02;100.00;97881.72;4990860;28;20030;-61
2022/06/27 03:57:19;;;;;;;38.10;28.92;;;;;;;16.01;100.00;98582.91;4993877;28;20077;-61
2022/06/27 03:59:45;;;;;;;34.10;30.55;;;;;;;15.99;100.00;98929.94;4976862;28;20081;-61
2022/06/27 04:02:10;;;;;;;32.60;29.05;;;;;;;15.97;100.00;99277.81;4974446;28;20022;-61
2022/06/27 04:04:36;;;;;;;30.88;27.30;;;;;;;15.95;100.00;99274.59;4975357;28;20146;-61
2022/06/27 04:07:04;;;;;;;33.95;26.85;;;;;;;16.02;100.00;99285.81;4986800;28;20042;-61
2022/06/27 04:09:30;;;;;;;37.28;28.60;;;;;;;16.07;100.00;99293.06;4993736;28;20022;-60
2022/06/27 04:11:55;;;;;;;38.22;33.90;;;;;;;16.09;100.00;99648.22;4972559;28;20053;-59
2022/06/27 04:14:21;;;;;;;37.95;31.67;;;;;;;16.10;100.00;100001.00;4985413;28;20022;-57
2022/06/27 04:16:46;;;;;;;46.63;35.85;;;;;;;16.13;100.00;100357.06;4973806;28;20051;-57
2022/06/27 04:19:12;;;;;;;36.85;29.75;;;;;;;16.10;100.00;101054.75;4975210;28;20497;-57
2022/06/27 04:21:37;;;;;;;32.28;26.98;;;;;;;16.08;100.00;101754.06;4972887;28;20050;-57
2022/06/27 04:24:03;;;;;;;36.20;30.52;;;;;;;16.07;100.00;102103.78;4975008;28;20062;-57
2022/06/27 04:26:28;;;;;;;40.40;30.48;;;;;;;16.13;100.00;102113.69;4991927;28;20144;-57
2022/06/27 04:28:54;;;;;;;35.38;29.73;;;;;;;16.17;100.00;102471.75;4984417;28;20447;-57
2022/06/27 04:31:20;;;;;;;40.97;33.97;;;;;;;16.24;100.00;103185.53;4978701;28;20049;-57
2022/06/27 04:33:45;;;;;;;47.22;32.80;;;;;;;16.25;100.00;104241.19;4993289;28;20029;-57
2022/06/27 04:36:12;;;;;;;34.17;30.33;;;;;;;16.24;100.00;104943.66;4990810;28;20585;-57
2022/06/27 04:38:38;;;;;;;40.22;31.65;;;;;;;16.33;100.00;106717.28;4990998;28;20113;-57
2022/06/27 04:41:04;;;;;;;34.10;29.95;;;;;;;16.29;100.00;109526.38;4987386;28;20058;-57
2022/06/27 04:43:30;;;;;;;34.65;28.60;;;;;;;16.29;100.00;111288.31;4973760;28;20033;-57
2022/06/27 04:45:55;;;;;;;30.42;27.15;;;;;;;16.30;100.00;112346.19;4981325;28;20038;-57
2022/06/27 04:48:21;;;;;;;33.20;29.05;;;;;;;16.30;100.00;113403.44;4992945;28;20026;-57
2022/06/27 04:50:47;;;;;;;34.45;27.45;;;;;;;16.27;100.00;115160.56;4991751;28;20100;-57
2022/06/27 04:53:13;;;;;;;29.15;26.35;;;;;;;16.26;100.00;116217.53;4992982;28;20030;-57
2022/06/27 04:55:39;;;;;;;31.05;24.30;;;;;;;16.21;100.00;116559.81;4988792;28;20133;-57
2022/06/27 04:58:04;;;;;;;31.25;26.63;;;;;;;16.23;100.00;117270.06;4992342;28;20429;-57
2022/06/27 05:00:30;;;;;;;36.35;26.33;;;;;;;16.26;100.00;117981.38;4991733;28;20038;-57
2022/06/27 05:02:55;;;;;;;31.10;26.05;;;;;;;16.31;100.00;118696.75;4991156;28;20026;-57
2022/06/27 05:05:21;;;;;;;31.15;26.30;;;;;;;16.31;100.00;119048.75;4990772;28;20066;-57
2022/06/27 05:07:46;;;;;;;33.65;27.27;;;;;;;16.31;100.00;119754.72;4993120;28;20080;-56
2022/06/27 05:10:11;;;;;;;33.58;28.60;;;;;;;16.33;100.00;118699.66;4991085;28;20038;-57
2022/06/27 05:12:37;;;;;;;32.40;28.42;;;;;;;16.34;100.00;118701.59;4992826;28;20049;-57
2022/06/27 05:15:02;;;;;;;34.20;29.25;;;;;;;16.35;100.00;119762.50;4991095;28;20078;-57
2022/06/27 05:17:28;;;;;;;36.63;28.58;;;;;;;16.33;100.00;120465.72;4992488;28;20034;-57
2022/06/27 05:19:53;;;;;;;33.40;28.90;;;;;;;16.32;100.00;121875.38;4990958;28;20060;-58
2022/06/27 05:22:19;;;;;;;32.28;27.70;;;;;;;16.28;100.00;123280.41;4992728;28;20037;-57
2022/06/27 05:24:48;;;;;;;35.83;27.10;;;;;;;16.25;100.00;123627.72;4991170;28;20026;-57
2022/06/27 05:27:14;;;;;;;29.67;25.50;;;;;;;16.40;100.00;122596.81;4992150;28;20501;-57
2022/06/27 05:29:39;;;;;;;27.75;24.88;;;;;;;16.43;100.00;124017.38;4991701;28;20084;-57
2022/06/27 05:32:05;;;;;;;27.60;23.40;;;;;;;16.44;100.00;125787.09;4992365;28;20030;-57
2022/06/27 05:34:30;;;;;;;24.83;22.20;;;;;;;16.38;100.00;128958.25;4992326;28;20030;-57
2022/06/27 05:36:55;;;;;;;24.75;21.27;;;;;;;16.41;100.00;131442.44;4990859;28;20113;-57
2022/06/27 05:39:21;;;;;;;23.67;21.38;;;;;;;16.36;100.00;133909.72;4992187;28;20022;-57
2022/06/27 05:41:46;;;;;;;23.77;20.80;;;;;;;16.40;100.00;135690.28;4990694;28;20056;-57
2022/06/27 05:44:13;;;;;;;25.58;20.63;;;;;;;16.35;100.00;136389.19;4992316;28;20030;-57
2022/06/27 05:46:40;;;;;;;25.23;22.30;;;;;;;16.26;100.00;136723.63;4990720;28;20038;-57
2022/06/27 05:49:06;;;;;;;23.45;20.95;;;;;;;16.31;100.00;134962.75;4991774;28;20105;-57
2022/06/27 05:51:32;;;;;;;24.67;21.23;;;;;;;16.37;100.00;134621.59;4990854;28;20034;-57
2022/06/27 05:53:58;;;;;;;22.92;20.65;;;;;;;16.41;100.00;134984.78;4991926;28;20041;-57
2022/06/27 05:56:25;;;;;;;22.45;20.15;;;;;;;16.39;100.00;134979.25;4990127;28;20038;-57
2022/06/27 05:58:50;;;;;;;25.63;20.70;;;;;;;16.44;100.00;133927.22;4992244;28;20061;-58
2022/06/27 06:01:17;;;;;;;21.98;19.58;;;;;;;16.54;100.00;133949.06;4990368;28;20046;-57
2022/06/27 06:03:42;;;;;;;23.42;21.02;;;;;;;16.54;100.00;135720.22;4991642;28;20038;-57
2022/06/27 06:06:08;;;;;;;25.80;20.27;;;;;;;16.44;100.00;138535.88;4990601;28;20049;-57
2022/06/27 06:08:36;;;;;;;30.33;21.80;;;;;;;16.43;100.00;138889.44;4991912;28;20026;-57
2022/06/27 06:11:02;;;;;;;22.92;20.58;;;;;;;16.40;100.00;139237.38;4989830;28;20108;-57
2022/06/27 06:13:28;;;;;;;23.48;20.80;;;;;;;16.38;100.00;135332.56;4992186;28;20485;-57
2022/06/27 06:15:53;;;;;;;23.67;20.92;;;;;;;16.55;100.00;133595.81;4990115;28;20054;-57
2022/06/27 06:18:18;;;;;;;22.42;20.05;;;;;;;16.50;100.00;135713.53;4990530;28;20084;-57
2022/06/27 06:20:44;;;;;;;21.85;19.67;;;;;;;16.56;100.00;137497.69;4990213;28;20089;-57
2022/06/27 06:23:10;;;;;;;21.92;19.17;;;;;;;16.41;100.00;142078.66;4990215;28;20390;-56
2022/06/27 06:25:35;;;;;;;18.90;16.63;;;;;;;16.35;100.00;145260.59;4988267;28;20038;-57
2022/06/27 06:28:02;;;;;;;22.13;18.40;;;;;;;16.48;100.00;144579.75;4990398;28;20096;-57
2022/06/27 06:30:29;;;;;;;16.85;15.13;;;;;;;16.45;100.00;144929.09;4989830;28;20042;-57
2022/06/27 06:32:55;;;;;;;19.20;17.10;;;;;;;16.44;100.00;143861.09;4990767;28;20037;-57
2022/06/27 06:35:20;;;;;;;17.20;15.43;;;;;;;16.59;100.00;143183.59;4989789;28;20046;-57
2022/06/27 06:37:46;;;;;;;22.17;17.27;;;;;;;16.54;100.00;145303.41;4991285;28;20114;-57
2022/06/27 06:40:21;;;;;;;18.73;16.50;;;;;;;16.64;100.00;146750.25;4989297;28;20425;-57
2022/06/27 06:42:46;;;;;;;24.55;17.05;;;;;;;16.72;100.00;149613.81;4991399;28;20113;-56
2022/06/27 06:45:12;;;;;;;17.25;15.65;;;;;;;16.75;100.00;153537.22;4989850;28;20454;-56
2022/06/27 06:47:48;;;;;;;18.65;16.70;;;;;;;16.72;100.00;159325.47;4990971;28;20031;-56
2022/06/27 06:50:16;;;;;;;19.27;17.20;;;;;;;16.90;100.00;155710.53;4989873;28;20081;-56
2022/06/27 06:52:42;;;;;;;21.08;17.85;;;;;;;17.02;100.00;151109.13;4991462;28;20089;-56
2022/06/27 06:55:09;;;;;;;18.50;16.65;;;;;;;17.10;100.00;152197.56;4989148;28;20104;-56
2022/06/27 06:57:35;;;;;;;20.33;18.23;;;;;;;17.24;100.00;158292.03;4991161;28;20029;-56
2022/06/27 07:00:00;;;;;;;19.40;17.15;;;;;;;17.34;100.00;164423.44;4988709;28;20042;-56
2022/06/27 07:02:26;;;;;;;19.38;15.85;;;;;;;17.17;100.00;165055.97;4990702;28;20080;-56
2022/06/27 07:04:52;;;;;;;16.05;14.52;;;;;;;17.16;100.00;165053.31;4989796;28;20470;-56
2022/06/27 07:07:19;;;;;;;18.10;16.42;;;;;;;17.19;100.00;165061.41;4991193;28;20015;-56
2022/06/27 07:09:44;;;;;;;18.20;16.55;;;;;;;17.26;100.00;165081.75;4989506;28;20093;-56
2022/06/27 07:12:10;;;;;;;20.85;15.60;;;;;;;17.39;100.00;165115.59;4990817;28;20122;-56
2022/06/27 07:14:35;;;;;;;23.58;16.73;;;;;;;17.37;100.00;165110.22;4990702;28;20052;-56
2022/06/27 07:17:01;;;;;;;21.92;15.88;;;;;;;17.40;100.00;165118.31;4988830;28;20112;-56
2022/06/27 07:19:26;;;;;;;16.70;14.93;;;;;;;17.56;100.00;165160.38;4990810;28;20117;-56
2022/06/27 07:21:52;;;;;;;15.48;13.82;;;;;;;17.49;100.00;165141.41;4989335;28;20042;-56
2022/06/27 07:24:17;;;;;;;15.70;14.13;;;;;;;17.49;100.00;165140.03;4990497;28;20034;-56
2022/06/27 07:26:44;;;;;;;13.07;11.98;;;;;;;17.49;100.00;165140.03;4989397;28;20062;-57
2022/06/27 07:29:10;;;;;;;14.73;13.40;;;;;;;17.49;100.00;165140.03;4991163;28;20061;-56
2022/06/27 07:31:36;;;;;;;14.75;13.27;;;;;;;17.44;100.00;165129.19;4989685;28;20065;-56
2022/06/27 07:34:01;;;;;;;13.38;12.18;;;;;;;17.29;100.00;165088.53;4990806;28;20022;-56
2022/06/27 07:36:28;;;;;;;14.63;13.18;;;;;;;17.30;100.00;165091.25;4989708;28;20042;-56
2022/06/27 07:38:54;;;;;;;12.93;11.68;;;;;;;17.19;100.00;165061.41;4990232;28;20457;-56
2022/06/27 07:41:22;;;;;;;11.32;10.13;;;;;;;17.12;100.00;165045.16;4989396;28;20409;-56
2022/06/27 07:43:48;;;;;;;13.15;11.95;;;;;;;17.14;100.00;165049.22;4990972;28;20466;-56
2022/06/27 07:46:17;;;;;;;12.63;11.30;;;;;;;17.19;100.00;165062.81;4989150;28;20065;-56
2022/06/27 07:48:43;;;;;;;11.77;10.70;;;;;;;17.24;100.00;165074.94;4990706;28;20022;-57
2022/06/27 07:51:08;;;;;;;11.32;10.32;;;;;;;17.32;100.00;165096.63;4989407;28;20046;-56
2022/06/27 07:53:35;;;;;;;14.50;13.13;;;;;;;17.37;100.00;165110.22;4990650;28;20027;-56
2022/06/27 07:56:03;;;;;;;12.90;11.65;;;;;;;17.47;100.00;165134.59;4989146;28;20039;-56
2022/06/27 07:58:35;;;;;;;12.87;11.70;;;;;;;17.57;100.00;165161.72;4991015;28;20084;-56
2022/06/27 08:01:03;;;;;;;12.10;10.75;;;;;;;17.63;100.00;165177.97;4988585;28;20460;-57
2022/06/27 08:03:44;;;;;;;11.93;10.48;;;;;;;17.66;100.00;165186.13;4990414;28;20444;-56
2022/06/27 08:06:19;;;;;;;11.02;9.98;;;;;;;17.65;100.00;165183.41;4989167;28;20418;-56
2022/06/27 08:08:47;;;;;;;9.45;8.55;;;;;;;17.55;100.00;165157.66;4990279;28;20030;-56
2022/06/27 08:11:18;;;;;;;8.20;7.57;;;;;;;17.48;100.00;165137.28;4991350;28;20042;-56
2022/06/27 08:13:47;;;;;;;9.45;7.90;;;;;;;17.64;100.00;165180.69;4994482;28;20126;-56
2022/06/27 08:16:14;;;;;;;;;;;;;;;17.72;100.00;165202.38;4992554;28;20536;-56
2022/06/27 08:18:40;;;;;;;8.70;7.90;;;;;;;17.89;100.00;165245.75;4993897;28;19913;-57
2022/06/27 08:21:07;;;;;;;9.02;8.23;;;;;;;17.98;100.00;165270.22;4992186;28;20096;-57
2022/06/27 08:23:34;;;;;;;9.82;8.13;;;;;;;18.02;100.00;165281.06;4993624;28;20081;-56
2022/06/27 08:26:00;;;;;;;9.15;7.55;;;;;;;18.04;100.00;165286.50;4992066;28;20497;-56
2022/06/27 08:28:26;;;;;;;9.20;8.00;;;;;;;17.95;100.00;165262.06;4993727;28;20029;-56
2022/06/27 08:30:52;;;;;;;7.25;6.65;;;;;;;18.02;100.00;165281.06;4992096;28;20065;-56
2022/06/27 08:33:18;;;;;;;5.95;5.32;;;;;;;18.17;100.00;165320.34;4993920;28;20500;-56
2022/06/27 08:35:47;;;;;;;5.75;5.22;;;;;;;18.32;100.00;165359.69;4992312;28;20093;-56
2022/06/27 08:38:16;;;;;;;7.75;5.15;;;;;;;18.31;100.00;165355.63;4992941;28;20568;-57
2022/06/27 08:40:42;;;;;;;6.55;5.47;;;;;;;18.30;100.00;165354.25;4992208;28;20121;-56
2022/06/27 08:43:09;;;;;;;8.02;4.57;;;;;;;18.33;100.00;165361.03;4993615;28;20483;-57
2022/06/27 08:45:35;;;;;;;9.27;5.78;;;;;;;18.33;100.00;165362.41;4991948;28;20049;-57
2022/06/27 08:48:07;;;;;;;7.47;4.88;;;;;;;18.40;100.00;165380.00;4993186;28;20030;-56
2022/06/27 08:50:34;;;;;;;5.18;4.68;;;;;;;18.34;100.00;165365.13;4992163;28;20042;-56
2022/06/27 08:52:59;;;;;;;5.45;4.90;;;;;;;18.29;100.00;165350.19;4992744;28;20158;-56
2022/06/27 08:55:25;;;;;;;4.50;4.07;;;;;;;18.23;100.00;165335.28;4991899;28;20046;-57
2022/06/27 08:57:51;;;;;;;7.05;4.72;;;;;;;18.21;100.00;165331.22;4993250;28;20023;-56
2022/06/27 09:00:18;;;;;;;6.40;5.90;;;;;;;18.16;100.00;165316.28;4991185;28;20150;-56
2022/06/27 09:02:43;;;;;;;5.75;5.25;;;;;;;18.02;100.00;165281.06;4993227;28;20363;-56
2022/06/27 09:05:21;;;;;;;7.50;6.85;;;;;;;18.08;100.00;165297.31;4991350;28;20044;-56
2022/06/27 09:07:55;;;;;;;7.63;5.93;;;;;;;18.16;100.00;165316.28;4991385;28;20052;-57
2022/06/27 09:10:34;;;;;;;6.93;6.18;;;;;;;18.29;100.00;165350.19;4991795;28;20043;-57
2022/06/27 09:13:05;;;;;;;6.25;5.57;;;;;;;18.45;100.00;165393.59;4991666;28;20057;-56
2022/06/27 09:15:37;;;;;;;7.00;6.25;;;;;;;18.48;100.00;165400.38;4991204;28;20049;-56
2022/06/27 09:18:08;;;;;;;6.45;5.93;;;;;;;18.45;100.00;165393.59;4992328;28;20027;-56
2022/06/27 09:20:46;;;;;;;8.60;7.90;;;;;;;18.36;100.00;165370.50;4989651;28;20401;-56
2022/06/27 09:23:50;;;;;;;6.95;6.35;;;;;;;18.37;100.00;165371.91;4990378;28;20100;-56
2022/06/27 09:26:19;;;;;;;7.55;6.63;;;;;;;18.33;100.00;165362.41;4990656;28;20054;-56
2022/06/27 09:28:50;;;;;;;8.20;6.70;;;;;;;18.26;100.00;165343.44;4992523;28;20030;-57
2022/06/27 09:31:28;;;;;;;7.80;7.10;;;;;;;18.11;100.00;165304.06;4990971;28;20038;-56
2022/06/27 09:34:19;;;;;;;7.75;6.97;;;;;;;17.95;100.00;165260.63;4992707;28;20026;-56
2022/06/27 09:36:47;;;;;;;7.78;6.95;;;;;;;18.08;100.00;165297.31;4990797;28;20085;-56
2022/06/27 09:39:18;;;;;;;6.75;6.15;;;;;;;18.13;100.00;165308.19;4991990;28;20064;-56
2022/06/27 09:41:58;;;;;;;16.27;6.32;;;;;;;18.30;100.00;165354.25;4991136;28;20081;-56
2022/06/27 09:44:33;;;;;;;12.15;6.38;;;;;;;18.51;100.00;165408.47;4992049;28;20018;-56
2022/06/27 09:47:07;;;;;;;11.55;8.75;;;;;;;18.86;100.00;165502.06;4990755;28;20046;-56
2022/06/27 09:49:35;;;;;;;6.97;6.25;;;;;;;19.22;100.00;165595.72;4992220;28;20584;-56
2022/06/27 09:52:07;;;;;;;7.78;7.07;;;;;;;19.46;100.00;165659.47;4990363;28;20057;-57
2022/06/27 09:54:34;;;;;;;9.18;7.22;;;;;;;19.56;100.00;165685.25;4992054;28;20088;-56
2022/06/27 09:57:00;;;;;;;7.87;6.90;;;;;;;19.68;100.00;165716.47;4990666;28;20497;-57
2022/06/27 09:59:26;;;;;;;10.30;7.90;;;;;;;19.87;100.00;165766.72;4991656;28;20507;-56
2022/06/27 10:01:56;;;;;;;9.70;7.57;;;;;;;19.97;100.00;165792.50;4990599;28;20121;-56
2022/06/27 10:04:24;;;;;;;7.70;7.05;;;;;;;19.91;100.00;165777.63;4992137;28;20381;-56
2022/06/27 10:06:51;;;;;;;7.88;7.13;;;;;;;20.00;100.00;165800.66;4990239;28;20500;-57
2022/06/27 10:09:20;;;;;;;8.80;8.00;;;;;;;19.99;100.00;165796.59;4989339;28;20473;-56
2022/06/27 10:11:47;;;;;;;6.90;6.35;;;;;;;19.95;100.00;165788.44;4988977;28;20038;-56
2022/06/27 10:14:23;;;;;;;8.75;7.07;;;;;;;20.04;100.00;165811.50;4979363;28;20031;-57
2022/06/27 10:16:57;;;;;;;11.45;5.47;;;;;;;20.06;100.00;165815.59;4981229;28;20113;-57
2022/06/27 10:19:25;;;;;;;7.40;6.70;;;;;;;20.06;100.00;165815.59;4972236;28;20073;-56
2022/06/27 10:21:51;;;;;;;7.80;7.13;;;;;;;20.06;100.00;165815.59;4971338;28;20050;-56
2022/06/27 10:24:21;;;;;;;6.63;6.03;;;;;;;20.05;100.00;165812.88;4971882;28;20050;-56
2022/06/27 10:26:48;;;;;;;13.85;6.38;;;;;;;19.91;100.00;165777.63;4971124;28;20054;-57
2022/06/27 10:29:34;;;;;;;6.35;5.88;;;;;;;19.63;100.00;165704.25;4971992;28;20537;-57
2022/06/27 10:32:01;;;;;;;6.70;5.97;;;;;;;19.52;100.00;165674.41;4975631;28;20049;-57
2022/06/27 10:34:47;;;;;;;10.80;6.50;;;;;;;19.43;100.00;165649.97;4975385;28;20187;-56
2022/06/27 10:37:19;;;;;;;9.27;7.45;;;;;;;19.53;100.00;165675.75;4982785;28;20406;-56
2022/06/27 10:39:44;;;;;;;7.22;6.63;;;;;;;19.42;100.00;165647.25;4988766;28;20049;-56
2022/06/27 10:42:48;;;;;;;6.03;5.43;;;;;;;19.48;100.00;165663.53;4989127;28;20034;-57
2022/06/27 10:45:19;;;;;;;5.93;5.43;;;;;;;19.43;100.00;165651.38;4989799;28;20035;-56
2022/06/27 10:47:46;;;;;;;7.60;5.38;;;;;;;19.48;100.00;165663.53;4989559;28;20047;-56
2022/06/27 10:50:13;;;;;;;5.53;5.13;;;;;;;19.59;100.00;165692.03;4990806;28;20026;-57
2022/06/27 10:52:38;;;;;;;5.15;4.72;;;;;;;19.75;100.00;165735.47;4989667;28;20054;-56
2022/06/27 10:55:23;;;;;;;6.30;5.80;;;;;;;19.88;100.00;165769.44;4990946;28;20085;-56
2022/06/27 10:57:50;;;;;;;6.00;4.65;;;;;;;20.13;100.00;165835.94;4989565;28;20417;-56
2022/06/27 11:00:35;;;;;;;4.13;3.65;;;;;;;20.04;100.00;165811.50;4990788;28;20026;-56
2022/06/27 11:03:01;;;;;;;7.00;4.68;;;;;;;19.86;100.00;165764.00;4988226;28;20418;-57
2022/06/27 11:05:28;;;;;;;7.57;4.78;;;;;;;19.93;100.00;165783.00;4990819;28;20015;-56
2022/06/27 11:07:54;;;;;;;4.97;4.45;;;;;;;19.95;100.00;165787.09;4989635;28;20043;-57
2022/06/27 11:10:20;;;;;;;4.97;4.55;;;;;;;19.92;100.00;165780.28;4991147;28;20409;-56